createdAt,value
2019-05-02T00:02:23.940Z,5.80
2019-05-02T00:04:55.894Z,5.20
2019-05-02T00:07:23.158Z,5.30
2019-05-02T00:09:52.771Z,5.73
2019-05-02T00:12:23.149Z,5.23
2019-05-02T00:14:56.464Z,5.50
2019-05-02T00:17:27.498Z,5.57
2019-05-02T00:19:57.108Z,5.47
2019-05-02T00:22:26.660Z,5.50
2019-05-02T00:24:56.212Z,5.63
2019-05-02T00:27:25.977Z,5.43
2019-05-02T00:29:58.621Z,5.80
2019-05-02T00:32:26.943Z,5.50
2019-05-02T00:34:56.646Z,5.70
2019-05-02T00:37:26.736Z,5.20
2019-05-02T00:39:56.721Z,6.10
2019-05-02T00:42:26.346Z,5.90
2019-05-02T00:44:57.026Z,5.80
2019-05-02T00:47:28.155Z,6.03
2019-05-02T00:49:57.811Z,6.00
2019-05-02T00:52:27.365Z,6.27
2019-05-02T00:54:58.705Z,6.30
2019-05-02T00:57:27.904Z,7.13
2019-05-02T00:59:57.319Z,6.67
2019-05-02T01:02:28.443Z,6.60
2019-05-02T01:04:59.280Z,6.80
2019-05-02T01:07:29.189Z,7.20
2019-05-02T01:09:58.704Z,7.07
2019-05-02T01:12:28.156Z,6.70
2019-05-02T01:14:57.570Z,6.87
2019-05-02T01:17:30.964Z,7.47
2019-05-02T01:19:58.371Z,7.47
2019-05-02T01:22:29.131Z,7.87
2019-05-02T01:24:58.695Z,7.57
2019-05-02T01:27:42.607Z,8.30
2019-05-02T01:30:37.186Z,10.07
2019-05-02T01:33:08.794Z,9.50
2019-05-02T01:35:45.899Z,9.73
2019-05-02T01:38:31.135Z,9.80
2019-05-02T01:40:57.358Z,10.17
2019-05-02T01:43:31.682Z,9.60
2019-05-02T01:46:01.517Z,11.23
2019-05-02T01:48:31.161Z,10.90
2019-05-02T01:51:04.564Z,12.37
2019-05-02T01:53:34.337Z,13.30
2019-05-02T01:56:03.133Z,11.50
2019-05-02T01:58:32.630Z,12.37
2019-05-02T02:01:02.130Z,12.40
2019-05-02T02:03:31.626Z,11.93
2019-05-02T02:06:02.821Z,12.20
2019-05-02T02:08:33.945Z,12.20
2019-05-02T02:11:03.857Z,11.10
2019-05-02T02:13:36.425Z,12.53
2019-05-02T02:16:05.918Z,12.37
2019-05-02T02:18:40.277Z,12.73
2019-05-02T02:21:14.443Z,13.27
2019-05-02T02:23:49.668Z,13.33
2019-05-02T02:26:18.521Z,12.47
2019-05-02T02:28:48.183Z,12.50
2019-05-02T02:31:22.453Z,13.13
2019-05-02T02:33:52.010Z,12.00
2019-05-02T02:36:31.351Z,12.40
2019-05-02T02:38:52.927Z,11.57
2019-05-02T02:41:22.494Z,10.93
2019-05-02T02:44:13.433Z,11.40
2019-05-02T02:46:47.489Z,10.37
2019-05-02T02:49:21.615Z,10.33
2019-05-02T02:51:48.405Z,11.93
2019-05-02T02:54:18.003Z,13.23
2019-05-02T02:56:47.554Z,11.07
2019-05-02T02:59:19.658Z,11.10
2019-05-02T03:01:48.373Z,12.17
2019-05-02T03:04:17.870Z,11.53
2019-05-02T03:06:47.465Z,11.27
2019-05-02T03:09:20.149Z,11.37
2019-05-02T03:12:06.141Z,11.27
2019-05-02T03:14:40.899Z,12.03
2019-05-02T03:17:09.897Z,11.10
2019-05-02T03:19:39.499Z,11.80
2019-05-02T03:22:09.163Z,12.00
2019-05-02T03:24:43.908Z,11.17
2019-05-02T03:27:10.017Z,10.50
2019-05-02T03:29:43.808Z,11.23
2019-05-02T03:32:16.106Z,11.33
2019-05-02T03:34:48.364Z,11.53
2019-05-02T03:37:14.259Z,10.70
2019-05-02T03:39:49.414Z,11.40
2019-05-02T03:42:15.153Z,11.60
2019-05-02T03:44:54.589Z,10.93
2019-05-02T03:47:15.958Z,11.23
2019-05-02T03:49:48.806Z,10.80
2019-05-02T03:52:17.029Z,10.17
2019-05-02T03:54:50.571Z,10.43
2019-05-02T03:57:17.967Z,11.10
2019-05-02T03:59:47.403Z,10.30
2019-05-02T04:02:20.504Z,10.70
2019-05-02T04:04:54.134Z,11.63
2019-05-02T04:07:20.930Z,11.00
2019-05-02T04:09:51.340Z,12.13
2019-05-02T04:12:22.092Z,11.20
2019-05-02T04:14:55.433Z,11.33
2019-05-02T04:17:28.717Z,11.83
2019-05-02T04:19:55.940Z,11.93
2019-05-02T04:22:26.111Z,10.27
2019-05-02T04:24:56.789Z,11.37
2019-05-02T04:27:34.223Z,11.00
2019-05-02T04:30:09.878Z,10.50
2019-05-02T04:32:32.132Z,10.87
2019-05-02T04:35:01.554Z,11.07
2019-05-02T04:37:34.191Z,10.70
2019-05-02T04:40:03.475Z,11.20
2019-05-02T04:42:33.980Z,10.57
2019-05-02T04:45:20.675Z,11.07
2019-05-02T04:47:35.690Z,10.73
2019-05-02T04:50:17.625Z,11.07
2019-05-02T04:52:47.377Z,10.77
2019-05-02T04:55:26.154Z,11.13
2019-05-02T04:57:50.696Z,10.70
2019-05-02T05:00:21.473Z,11.30
2019-05-02T05:02:53.233Z,10.90
2019-05-02T05:05:27.395Z,10.60
2019-05-02T05:07:58.620Z,11.37
2019-05-02T05:10:28.053Z,10.47
2019-05-02T05:12:57.742Z,10.40
2019-05-02T05:15:40.251Z,11.23
2019-05-02T05:17:58.713Z,10.73
2019-05-02T05:20:28.256Z,10.47
2019-05-02T05:22:58.168Z,10.23
2019-05-02T05:25:32.679Z,11.00
2019-05-02T05:28:05.832Z,11.03
2019-05-02T05:30:37.629Z,10.30
2019-05-02T05:33:04.925Z,11.07
2019-05-02T05:35:34.356Z,11.40
2019-05-02T05:38:07.627Z,10.20
2019-05-02T05:40:37.636Z,9.80
2019-05-02T05:43:13.578Z,9.20
2019-05-02T05:45:50.668Z,9.50
2019-05-02T05:48:09.983Z,9.37
2019-05-02T05:50:41.384Z,9.07
2019-05-02T05:53:12.487Z,9.33
2019-05-02T05:55:42.283Z,8.83
2019-05-02T05:58:15.298Z,9.17
2019-05-02T06:00:45.951Z,9.37
2019-05-02T06:03:17.902Z,9.07
2019-05-02T06:05:47.980Z,9.40
2019-05-02T06:08:18.373Z,8.80
2019-05-02T06:10:48.849Z,8.70
2019-05-02T06:13:18.441Z,8.77
2019-05-02T06:16:02.642Z,9.40
2019-05-02T06:18:28.886Z,8.87
2019-05-02T06:21:03.177Z,8.33
2019-05-02T06:23:31.044Z,8.80
2019-05-02T06:26:01.249Z,9.60
2019-05-02T06:28:30.878Z,8.03
2019-05-02T06:31:02.105Z,8.87
2019-05-02T06:33:32.409Z,8.60
2019-05-02T06:36:02.596Z,9.03
2019-05-02T06:38:32.233Z,8.00
2019-05-02T06:41:02.021Z,8.57
2019-05-02T06:43:31.660Z,7.70
2019-05-02T06:46:01.293Z,7.63
2019-05-02T06:48:30.919Z,8.23
2019-05-02T06:51:04.857Z,8.13
2019-05-02T06:53:46.989Z,7.63
2019-05-02T06:56:16.794Z,7.93
2019-05-02T06:58:48.038Z,8.00
2019-05-02T07:01:21.253Z,7.70
2019-05-02T07:03:49.276Z,6.87
2019-05-02T07:06:19.153Z,8.13
2019-05-02T07:08:48.812Z,8.27
2019-05-02T07:11:18.383Z,7.63
2019-05-02T07:13:47.942Z,7.57
2019-05-02T07:16:36.883Z,7.60
2019-05-02T07:19:11.944Z,8.03
2019-05-02T07:21:42.085Z,7.93
2019-05-02T07:24:11.714Z,7.57
2019-05-02T07:26:41.208Z,7.20
2019-05-02T07:29:10.656Z,7.00
2019-05-02T07:31:43.042Z,8.20
2019-05-02T07:34:12.880Z,7.83
2019-05-02T07:36:42.929Z,7.97
2019-05-02T07:39:12.517Z,7.93
2019-05-02T07:41:42.096Z,8.13
2019-05-02T07:44:12.664Z,7.43
2019-05-02T07:46:51.581Z,9.00
2019-05-02T07:49:14.573Z,8.47
2019-05-02T07:51:44.963Z,7.80
2019-05-02T07:54:14.587Z,7.97
2019-05-02T07:56:44.181Z,7.27
2019-05-02T07:59:13.748Z,8.00
2019-05-02T08:01:44.827Z,7.43
2019-05-02T08:04:14.634Z,8.40
2019-05-02T08:06:44.564Z,7.27
2019-05-02T08:09:15.506Z,7.80
2019-05-02T08:11:45.237Z,7.17
2019-05-02T08:14:14.730Z,7.17
2019-05-02T08:16:44.142Z,7.13
2019-05-02T08:19:13.707Z,6.97
2019-05-02T08:21:43.274Z,7.67
2019-05-02T08:24:12.769Z,6.63
2019-05-02T08:27:03.660Z,7.23
2019-05-02T08:29:33.625Z,7.17
2019-05-02T08:32:03.283Z,6.70
2019-05-02T08:34:33.319Z,7.33
2019-05-02T08:37:04.911Z,6.10
2019-05-02T08:39:35.252Z,7.10
2019-05-02T08:42:05.892Z,6.80
2019-05-02T08:44:35.443Z,6.40
2019-05-02T08:47:18.131Z,6.43
2019-05-02T08:49:36.365Z,6.97
2019-05-02T08:52:05.934Z,7.27
2019-05-02T08:54:35.429Z,6.27
2019-05-02T08:57:05.070Z,6.80
2019-05-02T08:59:34.570Z,7.10
2019-05-02T09:02:04.235Z,7.57
2019-05-02T09:04:33.790Z,7.00
2019-05-02T09:07:03.365Z,7.60
2019-05-02T09:09:32.927Z,7.20
2019-05-02T09:12:11.979Z,7.47
2019-05-02T09:14:34.308Z,6.83
2019-05-02T09:17:08.836Z,6.80
2019-05-02T09:19:35.177Z,6.70
2019-05-02T09:22:07.491Z,7.10
2019-05-02T09:24:36.270Z,7.00
2019-05-02T09:27:06.007Z,7.33
2019-05-02T09:29:37.290Z,6.83
2019-05-02T09:32:06.980Z,6.90
2019-05-02T09:34:36.537Z,5.83
2019-05-02T09:37:06.194Z,6.33
2019-05-02T09:39:36.596Z,6.53
2019-05-02T09:42:10.840Z,6.23
2019-05-02T09:44:39.403Z,5.97
2019-05-02T09:47:12.734Z,6.17
2019-05-02T09:49:48.927Z,6.43
2019-05-02T09:52:13.468Z,5.53
2019-05-02T09:54:46.072Z,5.70
2019-05-02T09:57:14.112Z,5.53
2019-05-02T09:59:50.343Z,5.80
2019-05-02T10:02:15.076Z,6.53
2019-05-02T10:04:44.628Z,5.83
2019-05-02T10:07:15.495Z,5.37
2019-05-02T10:09:45.468Z,5.60
2019-05-02T10:12:14.971Z,5.33
2019-05-02T10:14:44.595Z,5.10
2019-05-02T10:17:14.215Z,4.77
2019-05-02T10:19:49.222Z,5.03
2019-05-02T10:22:15.238Z,4.90
2019-05-02T10:24:45.127Z,5.73
2019-05-02T10:27:14.688Z,4.90
2019-05-02T10:29:44.251Z,4.70
2019-05-02T10:32:16.637Z,5.07
2019-05-02T10:34:47.588Z,4.90
2019-05-02T10:37:16.368Z,5.50
2019-05-02T10:39:46.030Z,4.47
2019-05-02T10:42:15.531Z,4.53
2019-05-02T10:44:45.167Z,4.10
2019-05-02T10:47:14.887Z,4.43
2019-05-02T10:49:57.965Z,4.30
2019-05-02T10:52:29.899Z,4.07
2019-05-02T10:54:58.914Z,4.67
2019-05-02T10:57:28.540Z,5.10
2019-05-02T10:59:59.172Z,4.40
2019-05-02T11:02:33.469Z,4.53
2019-05-02T11:05:07.424Z,4.40
2019-05-02T11:07:36.975Z,4.03
2019-05-02T11:10:07.972Z,4.83
2019-05-02T11:12:44.470Z,4.07
2019-05-02T11:15:12.755Z,4.20
2019-05-02T11:17:43.971Z,4.30
2019-05-02T11:20:13.882Z,3.80
2019-05-02T11:22:43.619Z,3.50
2019-05-02T11:25:13.385Z,3.57
2019-05-02T11:27:48.661Z,3.43
2019-05-02T11:30:22.279Z,3.67
2019-05-02T11:32:51.629Z,3.53
2019-05-02T11:35:22.402Z,3.63
2019-05-02T11:37:52.063Z,3.83
2019-05-02T11:40:22.745Z,3.47
2019-05-02T11:42:52.702Z,4.00
2019-05-02T11:45:22.744Z,3.90
2019-05-02T11:47:55.800Z,3.87
2019-05-02T11:50:26.725Z,4.13
2019-05-02T11:52:54.996Z,3.57
2019-05-02T11:55:28.872Z,3.50
2019-05-02T11:57:55.702Z,4.20
2019-05-02T12:00:25.380Z,3.83
2019-05-02T12:03:12.753Z,4.13
2019-05-02T12:05:44.258Z,4.07
2019-05-02T12:08:13.866Z,4.10
2019-05-02T12:11:03.386Z,4.13
2019-05-02T12:13:23.588Z,4.20
2019-05-02T12:15:53.152Z,4.67
2019-05-02T12:18:23.362Z,5.20
2019-05-02T12:20:53.491Z,4.80
2019-05-02T12:23:23.110Z,5.80
2019-05-02T12:25:52.658Z,5.50
2019-05-02T12:28:23.009Z,5.20
2019-05-02T12:30:52.765Z,6.83
2019-05-02T12:33:23.941Z,5.83
2019-05-02T12:35:53.501Z,5.23
2019-05-02T12:38:23.293Z,6.33
2019-05-02T12:40:57.734Z,6.87
2019-05-02T12:43:28.798Z,6.07
2019-05-02T12:46:02.090Z,5.80
2019-05-02T12:48:32.785Z,4.67
2019-05-02T12:51:02.900Z,5.03
2019-05-02T12:53:32.706Z,5.07
2019-05-02T12:56:02.357Z,4.77
2019-05-02T12:58:32.635Z,4.60
2019-05-02T13:01:02.912Z,4.50
2019-05-02T13:03:43.725Z,4.60
2019-05-02T13:06:13.469Z,4.63
2019-05-02T13:08:48.901Z,4.40
2019-05-02T13:11:36.991Z,4.47
2019-05-02T13:14:31.787Z,5.60
2019-05-02T13:17:01.460Z,4.90
2019-05-02T13:19:38.098Z,5.30
2019-05-02T13:22:03.401Z,4.63
2019-05-02T13:24:42.343Z,4.77
2019-05-02T13:27:17.161Z,5.70
2019-05-02T13:29:49.061Z,5.67
2019-05-02T13:32:21.743Z,5.53
2019-05-02T13:35:08.812Z,5.43
2019-05-02T13:37:42.420Z,5.43
2019-05-02T13:40:37.747Z,5.30
2019-05-02T13:43:13.212Z,4.50
2019-05-02T13:45:52.667Z,5.07
2019-05-02T13:56:57.130Z,4.33
2019-05-02T13:59:26.525Z,4.20
2019-05-02T14:11:24.956Z,6.23
2019-05-02T14:13:12.453Z,4.90
2019-05-02T14:15:42.118Z,5.20
2019-05-02T14:18:12.519Z,5.30
2019-05-02T14:20:42.844Z,4.90
2019-05-02T14:23:12.761Z,5.00
2019-05-02T14:25:42.676Z,5.07
2019-05-02T14:28:12.933Z,4.97
2019-05-02T14:30:46.045Z,4.63
2019-05-02T14:33:15.553Z,5.47
2019-05-02T14:35:45.170Z,5.23
2019-05-02T14:38:15.461Z,4.70
2019-05-02T14:40:48.293Z,4.67
2019-05-02T14:43:38.132Z,5.23
2019-05-02T14:46:06.897Z,5.03
2019-05-02T14:48:41.725Z,4.77
2019-05-02T14:51:11.848Z,8.10
2019-05-02T14:53:43.013Z,5.10
2019-05-02T14:56:26.338Z,6.07
2019-05-02T14:58:55.895Z,6.30
2019-05-02T15:01:26.259Z,7.30
2019-05-02T15:03:58.297Z,6.53
2019-05-02T15:06:27.349Z,4.60
2019-05-02T15:08:56.949Z,6.03
2019-05-02T15:11:30.940Z,5.00
2019-05-02T15:13:57.677Z,8.23
2019-05-02T15:16:39.522Z,5.73
2019-05-02T15:18:58.388Z,5.60
2019-05-02T15:21:29.779Z,5.87
2019-05-02T15:23:59.380Z,14.87
2019-05-02T15:26:31.285Z,4.97
2019-05-02T15:29:01.795Z,8.27
2019-05-02T15:31:34.350Z,5.40
2019-05-02T15:34:08.353Z,5.53
2019-05-02T15:36:44.078Z,7.00
2019-05-02T15:41:44.913Z,5.20
2019-05-02T15:44:13.381Z,4.90
2019-05-02T15:46:43.050Z,5.80
2019-05-02T15:49:12.532Z,5.40
2019-05-02T15:51:45.034Z,5.50
2019-05-02T15:54:13.440Z,5.67
2019-05-02T15:57:00.447Z,5.90
2019-05-02T15:59:43.976Z,5.93
2019-05-02T16:02:08.382Z,5.23
2019-05-02T16:04:41.971Z,5.13
2019-05-02T16:07:12.687Z,4.93
2019-05-02T16:09:42.320Z,5.13
2019-05-02T16:12:12.345Z,5.27
2019-05-02T16:14:43.343Z,6.83
2019-05-02T16:17:17.633Z,5.47
2019-05-02T16:19:45.864Z,5.90
2019-05-02T16:22:17.171Z,5.83
2019-05-02T16:24:49.009Z,4.57
2019-05-02T16:27:21.930Z,6.03
2019-05-02T16:29:50.544Z,4.67
2019-05-02T16:32:22.100Z,5.03
2019-05-02T16:35:12.285Z,5.20
2019-05-02T16:37:36.658Z,5.70
2019-05-02T16:43:09.885Z,5.30
2019-05-02T16:45:41.671Z,5.83
2019-05-02T16:48:12.477Z,6.23
2019-05-02T16:50:44.821Z,5.70
2019-05-02T16:53:17.151Z,6.07
2019-05-02T16:55:45.226Z,5.87
2019-05-02T16:58:14.652Z,7.07
2019-05-02T17:00:45.521Z,6.00
2019-05-02T17:03:17.423Z,5.90
2019-05-02T17:05:49.448Z,6.07
2019-05-02T17:08:20.673Z,6.07
2019-05-02T17:10:56.737Z,6.00
2019-05-02T17:13:27.411Z,5.93
2019-05-02T17:15:55.373Z,6.27
2019-05-02T17:18:25.081Z,6.80
2019-05-02T17:20:56.848Z,5.90
2019-05-02T17:23:25.803Z,6.73
2019-05-02T17:25:55.218Z,6.37
2019-05-02T17:28:24.777Z,6.50
2019-05-02T17:30:54.328Z,10.17
2019-05-02T17:33:23.900Z,15.37
2019-05-02T17:35:54.379Z,19.50
2019-05-02T17:38:29.008Z,34.47
2019-05-02T17:41:04.905Z,26.70
2019-05-02T17:43:32.896Z,29.03
2019-05-02T17:46:04.280Z,26.63
2019-05-02T17:48:36.679Z,20.30
2019-05-02T17:51:17.727Z,20.77
2019-05-02T17:53:49.734Z,11.83
2019-05-02T17:56:20.598Z,14.93
2019-05-02T17:58:54.213Z,18.40
2019-05-02T18:01:26.330Z,13.07
2019-05-02T18:03:55.710Z,27.23
2019-05-02T18:06:32.976Z,17.83
2019-05-02T18:08:56.573Z,9.07
2019-05-02T18:11:29.603Z,7.93
2019-05-02T18:13:57.615Z,7.47
2019-05-02T18:16:27.278Z,12.43
2019-05-02T18:18:56.932Z,12.20
2019-05-02T18:21:28.702Z,11.93
2019-05-02T18:24:02.453Z,8.80
2019-05-02T18:26:31.726Z,7.53
2019-05-02T18:29:02.783Z,7.63
2019-05-02T18:31:34.802Z,8.07
2019-05-02T18:34:03.816Z,8.57
2019-05-02T18:36:37.134Z,11.40
2019-05-02T18:39:08.896Z,14.47
2019-05-02T18:41:44.761Z,11.40
2019-05-02T18:44:11.869Z,9.03
2019-05-02T18:46:42.882Z,8.93
2019-05-02T18:49:17.010Z,7.97
2019-05-02T18:51:48.287Z,7.30
2019-05-02T18:54:15.358Z,7.07
2019-05-02T18:56:50.261Z,8.33
2019-05-02T18:59:19.906Z,8.27
2019-05-02T19:01:52.703Z,7.77
2019-05-02T19:04:22.123Z,8.90
2019-05-02T19:06:52.487Z,8.37
2019-05-02T19:09:26.434Z,11.93
2019-05-02T19:12:04.806Z,11.03
2019-05-02T19:14:26.631Z,9.00
2019-05-02T19:16:58.129Z,8.27
2019-05-02T19:19:32.315Z,9.57
2019-05-02T19:21:58.623Z,10.17
2019-05-02T19:24:32.908Z,9.70
2019-05-02T19:26:59.690Z,10.27
2019-05-02T19:29:31.779Z,9.77
2019-05-02T19:32:01.307Z,8.37
2019-05-02T19:34:32.383Z,8.10
2019-05-02T19:37:02.859Z,15.07
2019-05-02T19:39:34.013Z,8.87
2019-05-02T19:42:03.657Z,14.00
2019-05-02T19:44:34.135Z,15.27
2019-05-02T19:47:08.252Z,18.80
2019-05-02T19:49:35.448Z,11.67
2019-05-02T19:52:05.407Z,8.10
2019-05-02T19:54:39.319Z,7.93
2019-05-02T19:57:07.471Z,6.80
2019-05-02T19:59:36.979Z,6.57
2019-05-02T20:02:06.625Z,7.37
2019-05-02T20:04:37.592Z,6.93
2019-05-02T20:07:07.824Z,7.47
2019-05-02T20:09:38.151Z,8.00
2019-05-02T20:12:11.651Z,6.70
2019-05-02T20:14:47.342Z,7.77
2019-05-02T20:17:20.021Z,7.40
2019-05-02T20:19:57.671Z,6.50
2019-05-02T20:22:27.293Z,6.07
2019-05-02T20:25:00.381Z,6.50
2019-05-02T20:27:28.862Z,6.23
2019-05-02T20:30:00.297Z,6.60
2019-05-02T20:32:32.262Z,7.20
2019-05-02T20:35:02.268Z,6.53
2019-05-02T20:37:32.537Z,6.70
2019-05-02T20:40:03.556Z,6.20
2019-05-02T20:42:33.198Z,6.73
2019-05-02T20:45:02.872Z,6.33
2019-05-02T20:47:33.077Z,6.83
2019-05-02T20:50:04.426Z,6.83
2019-05-02T20:52:35.667Z,6.17
2019-05-02T20:55:06.805Z,6.63
2019-05-02T20:57:36.409Z,6.23
2019-05-02T21:00:09.108Z,5.90
2019-05-02T21:02:40.137Z,6.77
2019-05-02T21:05:11.849Z,6.13
2019-05-02T21:07:43.249Z,7.00
2019-05-02T21:10:14.685Z,5.80
2019-05-02T21:12:44.315Z,7.40
2019-05-02T21:15:13.985Z,7.13
2019-05-02T21:17:43.729Z,6.53
2019-05-02T21:20:13.367Z,6.20
2019-05-02T21:22:42.853Z,6.73
2019-05-02T21:25:13.849Z,6.37
2019-05-02T21:27:44.913Z,6.00
2019-05-02T21:30:17.044Z,6.47
2019-05-02T21:32:46.692Z,7.53
2019-05-02T21:35:16.206Z,6.50
2019-05-02T21:37:45.735Z,7.03
2019-05-02T21:40:15.498Z,6.60
2019-05-02T21:42:44.995Z,6.33
2019-05-02T21:45:15.127Z,6.70
2019-05-02T21:47:44.680Z,6.03
2019-05-02T21:50:25.025Z,6.50
2019-05-02T21:52:56.228Z,6.37
2019-05-02T21:55:27.687Z,6.43
2019-05-02T21:57:57.514Z,6.30
2019-05-02T22:00:45.897Z,6.03
2019-05-02T22:03:16.196Z,6.33
2019-05-02T22:05:47.221Z,6.00
2019-05-02T22:08:16.884Z,7.13
2019-05-02T22:10:46.540Z,6.70
2019-05-02T22:13:16.023Z,6.67
2019-05-02T22:15:45.584Z,6.30
2019-05-02T22:18:15.214Z,6.50
2019-05-02T22:20:44.703Z,6.97
2019-05-02T22:23:14.123Z,6.53
2019-05-02T22:25:43.626Z,6.03
2019-05-02T22:28:14.109Z,6.73
2019-05-02T22:30:43.682Z,6.47
2019-05-02T22:33:13.306Z,6.33
2019-05-02T22:35:43.372Z,7.20
2019-05-02T22:38:14.701Z,6.00
2019-05-02T22:40:45.755Z,6.77
2019-05-02T22:43:15.213Z,6.87
2019-05-02T22:45:44.783Z,6.60
2019-05-02T22:48:14.367Z,6.30
2019-05-02T22:50:43.859Z,6.80
2019-05-02T22:53:14.017Z,6.60
2019-05-02T22:55:43.811Z,6.63
2019-05-02T22:58:14.644Z,6.90
2019-05-02T23:00:44.173Z,6.60
2019-05-02T23:03:13.728Z,6.43
2019-05-02T23:05:43.220Z,6.43
2019-05-02T23:08:12.915Z,6.80
2019-05-02T23:10:43.435Z,5.77
2019-05-02T23:13:13.054Z,6.13
2019-05-02T23:15:42.762Z,7.00
2019-05-02T23:18:15.026Z,6.57
2019-05-02T23:20:44.523Z,6.57
2019-05-02T23:23:14.011Z,7.07
2019-05-02T23:25:57.100Z,6.20
2019-05-02T23:28:28.252Z,6.80
2019-05-02T23:30:57.809Z,6.63
2019-05-02T23:33:28.945Z,6.67
2019-05-02T23:35:58.444Z,6.73
2019-05-02T23:38:28.167Z,6.70
2019-05-02T23:40:59.254Z,6.97
2019-05-02T23:43:28.752Z,6.43
2019-05-02T23:45:58.243Z,6.03
2019-05-02T23:48:27.728Z,7.00
2019-05-02T23:50:57.221Z,7.10
2019-05-02T23:53:26.718Z,9.30
2019-05-02T23:55:56.307Z,8.67
2019-05-02T23:58:25.825Z,9.70
